Terminal Aerodrome Forecast
Issued by NWS Flagstaff, AZ

Home | Current Version | Previous Version | Text Only | Print | Product List | Glossary On
Versions: 1 2 3 4 5 6 7 8 9 10 11 12 13 14 15 16 17 18
000
FTUS45 KFGZ 200500
TAFFLG
TAF
KFLG 200528Z 2006/2106 VRB04KT P6SM SCT120
     FM201800 13008KT P6SM SCT060 BKN120
     FM210200 VRB04KT P6SM FEW060 FEW120=

USA.gov is the U.S. government's official web portal to all federal, state and local government web resources and services.